createdAt,value
2022-09-02T00:00:46.195Z,102236.16
2022-09-02T00:03:13.992Z,102239.28
2022-09-02T00:05:41.861Z,102239.22
2022-09-02T00:08:09.642Z,102236.66
2022-09-02T00:10:37.874Z,102232.47
2022-09-02T00:13:06.309Z,102233.63
2022-09-02T00:15:34.734Z,102229.50
2022-09-02T00:18:02.734Z,102226.94
2022-09-02T00:20:30.666Z,102224.53
2022-09-02T00:22:57.810Z,102227.22
2022-09-02T00:25:24.846Z,102228.25
2022-09-02T00:27:52.186Z,102229.19
2022-09-02T00:30:19.332Z,102230.94
2022-09-02T00:32:46.371Z,102228.59
2022-09-02T00:35:13.692Z,102228.53
2022-09-02T00:37:41.093Z,102230.94
2022-09-02T00:40:08.619Z,102229.72
2022-09-02T00:42:35.988Z,102228.13
2022-09-02T00:45:04.082Z,102233.56
2022-09-02T00:47:32.038Z,102228.28
2022-09-02T00:49:59.585Z,102238.91
2022-09-02T00:52:34.351Z,102229.19
2022-09-02T00:55:07.267Z,102237.31
2022-09-02T00:57:38.500Z,102230.25
2022-09-02T01:00:17.561Z,102229.91
2022-09-02T01:02:47.283Z,102227.94
2022-09-02T01:05:17.029Z,102224.06
2022-09-02T01:07:45.423Z,102226.34
2022-09-02T01:10:15.566Z,102223.31
2022-09-02T01:12:43.367Z,102220.75
2022-09-02T01:15:11.447Z,102220.56
2022-09-02T01:17:44.062Z,102220.44
2022-09-02T01:20:13.514Z,102215.97
2022-09-02T01:22:42.228Z,102218.53
2022-09-02T01:25:11.710Z,102220.28
2022-09-02T01:27:39.367Z,102219.31
2022-09-02T01:30:08.186Z,102209.38
2022-09-02T01:32:35.221Z,102216.91
2022-09-02T01:35:02.611Z,102211.50
2022-09-02T01:37:30.037Z,102209.63
2022-09-02T01:39:57.462Z,102208.53
2022-09-02T01:42:25.712Z,102216.38
2022-09-02T01:44:52.896Z,102204.00
2022-09-02T01:47:21.353Z,102202.28
2022-09-02T01:49:49.450Z,102200.66
2022-09-02T01:52:17.362Z,102208.53
2022-09-02T01:54:44.840Z,102193.97
2022-09-02T01:57:12.472Z,102202.41
2022-09-02T01:59:39.523Z,102191.75
2022-09-02T02:02:07.290Z,102181.34
2022-09-02T02:04:34.621Z,102191.81
2022-09-02T02:07:02.217Z,102198.00
2022-09-02T02:09:29.502Z,102190.13
2022-09-02T02:11:56.759Z,102191.88
2022-09-02T02:14:23.927Z,102191.03
2022-09-02T02:16:51.954Z,102185.50
2022-09-02T02:19:19.763Z,102192.63
2022-09-02T02:21:46.764Z,102195.19
2022-09-02T02:24:14.222Z,102190.50
2022-09-02T02:26:41.891Z,102192.03
2022-09-02T02:29:09.335Z,102182.09
2022-09-02T02:31:36.451Z,102190.88
2022-09-02T02:34:04.391Z,102190.75
2022-09-02T02:36:32.175Z,102193.19
2022-09-02T02:39:01.857Z,102193.03
2022-09-02T02:41:32.377Z,102192.13
2022-09-02T02:43:59.797Z,102193.19
2022-09-02T02:46:27.488Z,102188.03
2022-09-02T02:48:54.858Z,102192.47
2022-09-02T02:51:22.011Z,102189.28
2022-09-02T02:53:49.096Z,102196.25
2022-09-02T02:56:16.425Z,102184.84
2022-09-02T02:58:44.315Z,102189.22
2022-09-02T03:01:11.535Z,102187.38
2022-09-02T03:03:38.792Z,102189.75
2022-09-02T03:06:05.993Z,102185.59
2022-09-02T03:08:33.857Z,102179.47
2022-09-02T03:11:01.990Z,102186.59
2022-09-02T03:13:29.619Z,102187.13
2022-09-02T03:15:59.321Z,102187.13
2022-09-02T03:18:26.904Z,102184.50
2022-09-02T03:20:54.132Z,102180.84
2022-09-02T03:23:21.275Z,102183.34
2022-09-02T03:25:48.851Z,102177.84
2022-09-02T03:28:16.167Z,102178.81
2022-09-02T03:30:43.858Z,102185.81
2022-09-02T03:33:11.249Z,102177.94
2022-09-02T03:35:39.737Z,102184.13
2022-09-02T03:38:07.051Z,102183.25
2022-09-02T03:40:34.302Z,102191.22
2022-09-02T03:43:01.283Z,102183.50
2022-09-02T03:45:28.688Z,102185.34
2022-09-02T03:47:56.001Z,102187.06
2022-09-02T03:50:26.390Z,102180.00
2022-09-02T03:52:55.526Z,102181.88
2022-09-02T03:55:23.231Z,102178.50
2022-09-02T03:57:50.732Z,102180.59
2022-09-02T04:00:20.331Z,102181.50
2022-09-02T04:02:50.122Z,102178.94
2022-09-02T04:05:17.338Z,102180.84
2022-09-02T04:07:47.007Z,102181.78
2022-09-02T04:10:15.247Z,102180.06
2022-09-02T04:12:42.307Z,102182.03
2022-09-02T04:15:10.728Z,102186.59
2022-09-02T04:17:38.926Z,102185.91
2022-09-02T04:20:07.049Z,102192.19
2022-09-02T04:22:34.276Z,102188.91
2022-09-02T04:25:01.663Z,102189.81
2022-09-02T04:27:28.740Z,102193.34
2022-09-02T04:29:56.745Z,102199.56
2022-09-02T04:32:24.483Z,102197.00
2022-09-02T04:34:51.448Z,102192.75
2022-09-02T04:37:18.697Z,102197.13
2022-09-02T04:39:45.919Z,102195.38
2022-09-02T04:42:12.952Z,102197.31
2022-09-02T04:44:39.956Z,102202.28
2022-09-02T04:47:07.431Z,102200.59
2022-09-02T04:49:34.735Z,102205.84
2022-09-02T04:52:01.842Z,102203.94
2022-09-02T04:54:29.061Z,102196.94
2022-09-02T04:56:56.492Z,102194.16
2022-09-02T04:59:23.496Z,102204.56
2022-09-02T05:01:51.841Z,102203.44
2022-09-02T05:04:19.024Z,102206.81
2022-09-02T05:06:47.477Z,102198.41
2022-09-02T05:09:15.738Z,102197.31
2022-09-02T05:11:42.820Z,102198.91
2022-09-02T05:14:10.387Z,102195.19
2022-09-02T05:16:38.897Z,102199.00
2022-09-02T05:19:07.889Z,102193.22
2022-09-02T05:21:35.000Z,102193.25
2022-09-02T05:24:02.284Z,102202.94
2022-09-02T05:26:29.452Z,102205.53
2022-09-02T05:28:56.624Z,102202.47
2022-09-02T05:31:24.189Z,102201.63
2022-09-02T05:33:51.696Z,102205.69
2022-09-02T05:36:19.881Z,102196.50
2022-09-02T05:38:47.880Z,102189.56
2022-09-02T05:41:20.035Z,102196.63
2022-09-02T05:43:47.315Z,102195.75
2022-09-02T05:46:17.947Z,102204.09
2022-09-02T05:49:04.615Z,102204.00
2022-09-02T05:51:38.650Z,102199.03
2022-09-02T05:54:05.793Z,102198.00
2022-09-02T05:56:33.132Z,102199.91
2022-09-02T05:59:00.877Z,102195.59
2022-09-02T06:01:30.851Z,102197.78
2022-09-02T06:03:59.000Z,102194.28
2022-09-02T06:06:26.167Z,102201.91
2022-09-02T06:08:53.159Z,102194.97
2022-09-02T06:11:20.475Z,102208.38
2022-09-02T06:13:48.916Z,102199.84
2022-09-02T06:16:17.347Z,102204.06
2022-09-02T06:18:47.500Z,102198.66
2022-09-02T06:21:14.897Z,102201.22
2022-09-02T06:23:42.379Z,102197.72
2022-09-02T06:26:11.438Z,102198.59
2022-09-02T06:28:38.850Z,102202.22
2022-09-02T06:31:10.448Z,102205.31
2022-09-02T06:33:38.351Z,102204.25
2022-09-02T06:36:09.517Z,102202.88
2022-09-02T06:38:40.592Z,102197.28
2022-09-02T06:41:12.844Z,102197.88
2022-09-02T06:43:42.429Z,102196.03
2022-09-02T06:46:17.923Z,102195.34
2022-09-02T06:48:52.030Z,102193.72
2022-09-02T06:51:20.827Z,102199.69
2022-09-02T06:53:49.050Z,102199.56
2022-09-02T06:56:16.620Z,102205.44
2022-09-02T06:58:43.887Z,102196.09
2022-09-02T07:01:17.406Z,102197.44
2022-09-02T07:04:02.776Z,102199.81
2022-09-02T07:06:35.677Z,102195.50
2022-09-02T07:09:03.323Z,102197.06
2022-09-02T07:11:30.575Z,102195.34
2022-09-02T07:14:01.304Z,102188.69
2022-09-02T07:16:34.131Z,102198.25
2022-09-02T07:19:01.809Z,102192.72
2022-09-02T07:21:29.383Z,102189.84
2022-09-02T07:23:59.087Z,102189.81
2022-09-02T07:26:27.316Z,102188.25
2022-09-02T07:28:54.837Z,102185.88
2022-09-02T07:31:22.156Z,102185.28
2022-09-02T07:33:50.116Z,102183.31
2022-09-02T07:36:21.705Z,102175.72
2022-09-02T07:38:49.071Z,102186.28
2022-09-02T07:41:16.682Z,102177.59
2022-09-02T07:43:46.312Z,102174.25
2022-09-02T07:46:16.039Z,102174.28
2022-09-02T07:48:44.263Z,102174.16
2022-09-02T07:51:12.851Z,102175.38
2022-09-02T07:53:40.731Z,102171.16
2022-09-02T07:56:08.103Z,102162.72
2022-09-02T07:58:35.622Z,102172.88
2022-09-02T08:01:03.390Z,102163.84
2022-09-02T08:03:31.442Z,102168.81
2022-09-02T08:05:58.531Z,102166.88
2022-09-02T08:08:26.970Z,102161.16
2022-09-02T08:10:55.338Z,102165.69
2022-09-02T08:13:23.123Z,102173.19
2022-09-02T08:15:54.631Z,102167.22
2022-09-02T08:18:22.868Z,102172.75
2022-09-02T08:20:49.890Z,102172.66
2022-09-02T08:23:25.963Z,102167.31
2022-09-02T08:26:03.312Z,102160.66
2022-09-02T08:28:32.342Z,102162.34
2022-09-02T08:30:59.654Z,102174.84
2022-09-02T08:33:27.361Z,102168.97
2022-09-02T08:35:54.849Z,102165.50
2022-09-02T08:38:22.555Z,102175.66
2022-09-02T08:40:51.278Z,102166.47
2022-09-02T08:43:51.150Z,102159.91
2022-09-02T08:46:19.074Z,102158.03
2022-09-02T08:49:05.072Z,102159.13
2022-09-02T08:51:37.449Z,102161.41
2022-09-02T08:54:06.750Z,102154.91
2022-09-02T08:56:34.035Z,102156.50
2022-09-02T08:59:04.172Z,102146.50
2022-09-02T09:01:46.515Z,102144.06
2022-09-02T09:04:13.957Z,102148.97
2022-09-02T09:07:05.325Z,102141.91
2022-09-02T09:09:55.383Z,102143.53
2022-09-02T09:12:48.746Z,102150.63
2022-09-02T09:15:22.226Z,102148.66
2022-09-02T09:17:58.346Z,102130.38
2022-09-02T09:20:27.633Z,102137.31
2022-09-02T09:22:59.601Z,102134.34
2022-09-02T09:25:30.339Z,102134.78
2022-09-02T09:28:01.113Z,102122.81
2022-09-02T09:30:29.312Z,102126.28
2022-09-02T09:33:00.797Z,102126.88
2022-09-02T09:35:28.593Z,102127.19
2022-09-02T09:37:56.187Z,102128.28
2022-09-02T09:40:26.173Z,102118.00
2022-09-02T09:42:53.491Z,102120.16
2022-09-02T09:45:24.027Z,102115.91
2022-09-02T09:48:09.633Z,102122.38
2022-09-02T09:50:36.838Z,102122.09
2022-09-02T09:53:22.665Z,102124.97
2022-09-02T09:55:49.871Z,102119.28
2022-09-02T09:58:17.281Z,102112.69
2022-09-02T10:00:45.155Z,102108.28
2022-09-02T10:03:21.041Z,102110.56
2022-09-02T10:05:48.499Z,102104.75
2022-09-02T10:08:15.757Z,102105.47
2022-09-02T10:10:56.055Z,102109.72
2022-09-02T10:13:25.689Z,102093.66
2022-09-02T10:15:56.472Z,102093.50
2022-09-02T10:18:32.967Z,102103.78
2022-09-02T10:21:17.881Z,102093.75
2022-09-02T10:23:58.202Z,102093.94
2022-09-02T10:26:36.964Z,102093.56
2022-09-02T10:29:19.196Z,102096.75
2022-09-02T10:31:55.475Z,102087.47
2022-09-02T10:34:28.475Z,102088.56
2022-09-02T10:37:04.567Z,102095.38
2022-09-02T10:39:50.226Z,102091.69
2022-09-02T10:42:26.738Z,102097.03
2022-09-02T10:45:18.102Z,102100.78
2022-09-02T10:50:23.497Z,102081.28
2022-09-02T10:53:09.853Z,102063.00
2022-09-02T10:55:58.854Z,102071.28
2022-09-02T10:58:38.768Z,102070.19
2022-09-02T11:01:07.993Z,102065.56
2022-09-02T11:03:35.267Z,102074.66
2022-09-02T11:06:10.337Z,102082.13
2022-09-02T11:08:43.655Z,102076.97
2022-09-02T11:11:46.106Z,102083.75
2022-09-02T11:14:21.986Z,102064.06
2022-09-02T11:17:03.343Z,102079.22
2022-09-02T11:19:30.847Z,102078.22
2022-09-02T11:22:16.427Z,102072.94
2022-09-02T11:25:03.499Z,102072.34
2022-09-02T11:27:42.269Z,102073.47
2022-09-02T11:30:10.478Z,102072.31
2022-09-02T11:32:40.866Z,102063.72
2022-09-02T11:35:10.631Z,102048.75
2022-09-02T11:37:45.747Z,102041.88
2022-09-02T11:40:33.646Z,102038.84
2022-09-02T11:43:04.840Z,102036.38
2022-09-02T11:45:52.120Z,102024.88
2022-09-02T11:48:38.614Z,102023.72
2022-09-02T11:51:07.082Z,102028.38
2022-09-02T11:53:46.036Z,102022.22
2022-09-02T11:56:18.690Z,102032.63
2022-09-02T11:58:48.318Z,102022.59
2022-09-02T12:01:15.245Z,102024.59
2022-09-02T12:04:16.139Z,102015.31
2022-09-02T12:06:34.920Z,102014.19
2022-09-02T12:09:04.585Z,102008.56
2022-09-02T12:11:49.122Z,102007.94
2022-09-02T12:14:25.513Z,102007.09
2022-09-02T12:17:04.440Z,102013.94
2022-09-02T12:19:40.844Z,102000.69
2022-09-02T12:22:16.651Z,101999.94
2022-09-02T12:24:52.014Z,101990.25
2022-09-02T12:27:22.906Z,101992.34
2022-09-02T12:29:52.144Z,101994.56
2022-09-02T12:32:39.671Z,101997.13
2022-09-02T12:35:08.864Z,101990.34
2022-09-02T12:37:55.525Z,101991.81
2022-09-02T12:40:32.169Z,101970.91
2022-09-02T12:43:02.126Z,101986.06
2022-09-02T12:45:31.775Z,101985.59
2022-09-02T12:48:12.414Z,101978.84
2022-09-02T12:50:52.323Z,101976.75
2022-09-02T12:53:38.092Z,101975.78
2022-09-02T12:56:06.557Z,101986.44
2022-09-02T12:58:35.665Z,101979.34
2022-09-02T13:01:09.303Z,101975.69
2022-09-02T13:03:43.064Z,101975.81
2022-09-02T13:06:29.009Z,101974.44
2022-09-02T13:08:59.366Z,101972.38
2022-09-02T13:11:32.512Z,101983.38
2022-09-02T13:14:13.960Z,101982.09
2022-09-02T13:17:08.981Z,101983.97
2022-09-02T13:19:46.462Z,101981.16
2022-09-02T13:22:33.861Z,101980.81
2022-09-02T13:25:06.608Z,101984.63
2022-09-02T13:27:41.206Z,101975.06
2022-09-02T13:30:15.174Z,101970.41
2022-09-02T13:32:42.630Z,101972.91
2022-09-02T13:35:18.339Z,101964.91
2022-09-02T13:38:00.250Z,101964.38
2022-09-02T13:40:29.525Z,101969.72
2022-09-02T13:42:58.127Z,101963.41
2022-09-02T13:45:29.102Z,101960.16
2022-09-02T13:48:00.388Z,101959.44
2022-09-02T13:50:30.005Z,101960.41
2022-09-02T13:55:51.774Z,101952.69
2022-09-02T13:58:25.566Z,101947.03
2022-09-02T14:00:52.713Z,101936.09
2022-09-02T14:03:23.312Z,101943.41
2022-09-02T14:05:53.396Z,101938.13
2022-09-02T14:08:25.065Z,101940.34
2022-09-02T14:10:54.134Z,101944.16
2022-09-02T14:13:22.553Z,101938.59
2022-09-02T14:15:49.886Z,101935.38
2022-09-02T14:18:18.769Z,101940.53
2022-09-02T14:21:02.750Z,101936.44
2022-09-02T14:23:33.557Z,101933.22
2022-09-02T14:26:01.782Z,101923.66
2022-09-02T14:28:30.170Z,101918.38
2022-09-02T14:30:59.537Z,101936.44
2022-09-02T14:33:28.262Z,101926.91
2022-09-02T14:36:05.479Z,101925.06
2022-09-02T14:38:37.272Z,101924.34
2022-09-02T14:41:05.530Z,101923.81
2022-09-02T14:43:42.578Z,101925.47
2022-09-02T14:46:15.281Z,101922.25
2022-09-02T14:48:42.406Z,101924.94
2022-09-02T14:51:09.680Z,101921.25
2022-09-02T14:53:39.739Z,101916.19
2022-09-02T14:56:07.814Z,101924.25
2022-09-02T14:58:34.729Z,101922.13
2022-09-02T15:01:02.630Z,101929.25
2022-09-02T15:03:30.801Z,101932.22
2022-09-02T15:05:57.960Z,101924.00
2022-09-02T15:08:25.329Z,101921.25
2022-09-02T15:10:54.334Z,101920.41
2022-09-02T15:13:24.035Z,101925.88
2022-09-02T15:15:52.147Z,101923.81
2022-09-02T15:18:19.212Z,101920.97
2022-09-02T15:20:46.054Z,101924.31
2022-09-02T15:23:13.350Z,101923.19
2022-09-02T15:25:40.149Z,101925.63
2022-09-02T15:28:07.015Z,101924.53
2022-09-02T15:30:35.181Z,101917.28
2022-09-02T15:33:08.742Z,101919.75
2022-09-02T15:35:44.204Z,101908.69
2022-09-02T15:38:11.043Z,101913.84
2022-09-02T15:40:38.093Z,101909.78
2022-09-02T15:43:05.504Z,101915.38
2022-09-02T15:45:32.605Z,101923.69
2022-09-02T15:47:59.700Z,101906.91
2022-09-02T15:50:27.429Z,101910.78
2022-09-02T15:52:56.056Z,101901.94
2022-09-02T15:55:29.008Z,101903.06
2022-09-02T15:57:56.875Z,101910.19
2022-09-02T16:00:27.711Z,101911.81
2022-09-02T16:02:57.435Z,101906.00
2022-09-02T16:05:24.781Z,101903.13
2022-09-02T16:07:55.277Z,101907.94
2022-09-02T16:10:22.478Z,101910.63
2022-09-02T16:12:49.695Z,101907.56
2022-09-02T16:15:16.569Z,101913.16
2022-09-02T16:17:43.522Z,101909.41
2022-09-02T16:20:10.935Z,101920.09
2022-09-02T16:22:38.129Z,101916.19
2022-09-02T16:25:05.882Z,101920.28
2022-09-02T16:27:51.379Z,101909.66
2022-09-02T16:30:18.999Z,101924.31
2022-09-02T16:32:47.821Z,101900.53
2022-09-02T16:35:14.889Z,101902.75
2022-09-02T16:37:42.020Z,101898.88
2022-09-02T16:40:10.214Z,101900.06
2022-09-02T16:42:38.370Z,101894.97
2022-09-02T16:45:05.859Z,101902.09
2022-09-02T16:47:33.089Z,101897.28
2022-09-02T16:50:00.203Z,101905.19
2022-09-02T16:52:27.133Z,101902.88
2022-09-02T16:54:54.257Z,101907.00
2022-09-02T16:57:21.116Z,101909.31
2022-09-02T16:59:48.078Z,101904.22
2022-09-02T17:02:15.385Z,101903.13
2022-09-02T17:04:42.311Z,101903.25
2022-09-02T17:07:09.962Z,101895.97
2022-09-02T17:09:37.079Z,101901.78
2022-09-02T17:12:04.186Z,101887.28
2022-09-02T17:14:31.211Z,101892.34
2022-09-02T17:16:58.481Z,101888.84
2022-09-02T17:19:29.956Z,101897.44
2022-09-02T17:21:59.521Z,101893.09
2022-09-02T17:24:28.310Z,101899.22
2022-09-02T17:26:56.478Z,101894.19
2022-09-02T17:29:48.664Z,101894.06
2022-09-02T17:32:11.939Z,101897.41
2022-09-02T17:34:39.127Z,101900.78
2022-09-02T17:37:06.023Z,101891.28
2022-09-02T17:39:34.557Z,101893.78
2022-09-02T17:42:02.577Z,101890.69
2022-09-02T17:44:36.025Z,101895.66
2022-09-02T17:47:07.479Z,101889.94
2022-09-02T17:49:36.800Z,101897.25
2022-09-02T17:52:08.185Z,101898.06
2022-09-02T17:54:36.468Z,101901.44
2022-09-02T17:57:12.403Z,101902.00
2022-09-02T17:59:42.593Z,101904.53
2022-09-02T18:02:15.412Z,101904.16
2022-09-02T18:04:54.819Z,101898.84
2022-09-02T18:07:21.907Z,101902.69
2022-09-02T18:09:50.318Z,101902.06
2022-09-02T18:12:17.231Z,101901.78
2022-09-02T18:14:48.735Z,101908.91
2022-09-02T18:17:42.310Z,101906.41
2022-09-02T18:20:12.508Z,101907.66
2022-09-02T18:22:52.193Z,101917.13
2022-09-02T18:25:37.951Z,101912.03
2022-09-02T18:28:16.274Z,101914.25
2022-09-02T18:30:56.158Z,101914.47
2022-09-02T18:33:26.440Z,101919.63
2022-09-02T18:35:56.576Z,101919.25
2022-09-02T18:38:49.716Z,101926.50
2022-09-02T18:41:26.260Z,101927.44
2022-09-02T18:43:57.345Z,101931.19
2022-09-02T18:46:27.041Z,101936.16
2022-09-02T18:48:57.117Z,101932.97
2022-09-02T18:51:38.385Z,101934.97
2022-09-02T18:54:09.467Z,101935.38
2022-09-02T18:56:39.029Z,101933.06
2022-09-02T18:59:10.851Z,101939.09
2022-09-02T19:01:43.954Z,101937.06
2022-09-02T19:04:11.374Z,101939.81
2022-09-02T19:06:39.968Z,101937.66
2022-09-02T19:09:08.134Z,101935.31
2022-09-02T19:11:36.722Z,101946.91
2022-09-02T19:14:06.696Z,101948.47
2022-09-02T19:16:35.239Z,101945.41
2022-09-02T19:19:03.111Z,101948.16
2022-09-02T19:21:33.813Z,101945.06
